Malake Puwet — FAA6535 — position and weather

sailwx.info

Track history (hours):
 
Tides and Currents Weather Stations Pressure Air Temp Water Temp Dewpoint Dewpoint Depression Visibility Wind Speed Wind Dir Waves Ship Positions

Malake Puwet

Last reported at 2018-Apr-01 00:37 UTC. Time now 2018-May-22 10:05 UTC.
Position N 18°04' W 063°16'.
Warning: this ship's position is 51 days out of date.

Type: Sailing vessel. MMSI: 227144010.

Date/timePositionNaut miles runAvg speedWind from/ knotsBaromVisibWave heightAir tempDewpointWater temp
2018-Apr-01 00:37N 18°04' W 063°16'1 6.0
2018-Apr-01 00:28N 18°04' W 063°15'3 6.1
2018-Mar-31 23:59N 18°03' W 063°12'3 5.2
2018-Mar-31 23:27N 18°02' W 063°10'2 3.7
2018-Mar-31 22:56N 18°02' W 063°08'2 3.7
2018-Mar-31 22:28N 18°02' W 063°06'0 0.0
2018-Mar-30 15:05N 18°02' W 063°06'0 1.6
2018-Mar-30 14:54N 18°01' W 063°06'1 1.6
2018-Mar-30 14:21N 18°01' W 063°05'69 5.7
2018-Mar-30 02:17N 17°24' W 062°04'2 6.8
2018-Mar-30 01:58N 17°23' W 062°02'3 6.6
2018-Mar-30 01:30N 17°20' W 062°00'4 6.7
2018-Mar-30 00:58N 17°18' W 061°57'3 7.0
2018-Mar-30 00:30N 17°16' W 061°54'4 7.6
2018-Mar-30 00:00N 17°15' W 061°51'4 7.6
2018-Mar-29 23:30N 17°13' W 061°47'4 7.4
2018-Mar-29 22:59N 17°11' W 061°44'4 7.7
2018-Mar-29 22:30N 17°08' W 061°41'3 6.9
2018-Mar-29 22:00N 17°05' W 061°39'2 3.1
2018-Mar-29 21:30N 17°04' W 061°40'1 2.0
2018-Mar-29 21:00N 17°05' W 061°40'0 0.0
2018-Mar-28 17:23N 17°05' W 061°40'0 0.0
2018-Mar-28 16:59N 17°05' W 061°40'0 0.0
2018-Mar-28 16:29N 17°05' W 061°40'0 1.0
2018-Mar-28 16:00N 17°04' W 061°40'0 0.0
2018-Mar-27 19:27N 17°04' W 061°40'1 3.0
2018-Mar-27 19:00N 17°03' W 061°40'2 4.2
2018-Mar-27 18:29N 17°01' W 061°41'2 3.2
2018-Mar-27 18:00N 16°60' W 061°42'2 3.3
2018-Mar-27 17:29N 16°59' W 061°44'1 1.9
2018-Mar-27 17:00N 16°59' W 061°45'1 2.6
2018-Mar-27 16:30N 16°60' W 061°46'1 1.3
2018-Mar-27 15:58N 17°01' W 061°46'0 0.0
2018-Mar-26 14:35N 17°01' W 061°46'0 0.1
2018-Mar-26 14:29N 17°01' W 061°46'0 0.0
2018-Mar-26 13:59N 17°01' W 061°46'0 0.0
2018-Mar-25 21:20N 17°01' W 061°46'0 0.6
2018-Mar-25 21:00N 17°00' W 061°46'0 0.5
2018-Mar-25 20:30N 17°00' W 061°46'0 0.0
2018-Mar-25 20:00N 17°00' W 061°46'0 0.0
2018-Mar-25 19:23N 17°00' W 061°46'1 1.8
2018-Mar-25 18:59N 16°60' W 061°46'2 4.1
2018-Mar-25 18:30N 16°58' W 061°47'3 5.9
2018-Mar-25 18:00N 16°55' W 061°48'3 6.3
2018-Mar-25 17:30N 16°52' W 061°49'3 6.3
2018-Mar-25 17:00N 16°49' W 061°49'3 5.9
2018-Mar-25 16:30N 16°46' W 061°49'  
Track history (hours):
 
Tides and Currents Weather Stations Pressure Air Temp Water Temp Dewpoint Dewpoint Depression Visibility Wind Speed Wind Dir Waves Ship Positions

Malake Puwet

Last reported at 2018-Apr-01 00:37 UTC. Time now 2018-May-22 10:05 UTC.
Position N 18°04' W 063°16'.
Warning: this ship's position is 51 days out of date.

Type: Sailing vessel. MMSI: 227144010.

Date/timePositionNaut miles runAvg speedWind from/ knotsBaromVisibWave heightAir tempDewpointWater temp
2018-Apr-01 00:37N 18°04' W 063°16'1 6.0
2018-Apr-01 00:28N 18°04' W 063°15'3 6.1
2018-Mar-31 23:59N 18°03' W 063°12'3 5.2
2018-Mar-31 23:27N 18°02' W 063°10'2 3.7
2018-Mar-31 22:56N 18°02' W 063°08'2 3.7
2018-Mar-31 22:28N 18°02' W 063°06'0 0.0
2018-Mar-30 15:05N 18°02' W 063°06'0 1.6
2018-Mar-30 14:54N 18°01' W 063°06'1 1.6
2018-Mar-30 14:21N 18°01' W 063°05'69 5.7
2018-Mar-30 02:17N 17°24' W 062°04'2 6.8
2018-Mar-30 01:58N 17°23' W 062°02'3 6.6
2018-Mar-30 01:30N 17°20' W 062°00'4 6.7
2018-Mar-30 00:58N 17°18' W 061°57'3 7.0
2018-Mar-30 00:30N 17°16' W 061°54'4 7.6
2018-Mar-30 00:00N 17°15' W 061°51'4 7.6
2018-Mar-29 23:30N 17°13' W 061°47'4 7.4
2018-Mar-29 22:59N 17°11' W 061°44'4 7.7
2018-Mar-29 22:30N 17°08' W 061°41'3 6.9
2018-Mar-29 22:00N 17°05' W 061°39'2 3.1
2018-Mar-29 21:30N 17°04' W 061°40'1 2.0
2018-Mar-29 21:00N 17°05' W 061°40'0 0.0
2018-Mar-28 17:23N 17°05' W 061°40'0 0.0
2018-Mar-28 16:59N 17°05' W 061°40'0 0.0
2018-Mar-28 16:29N 17°05' W 061°40'0 1.0
2018-Mar-28 16:00N 17°04' W 061°40'0 0.0
2018-Mar-27 19:27N 17°04' W 061°40'1 3.0
2018-Mar-27 19:00N 17°03' W 061°40'2 4.2
2018-Mar-27 18:29N 17°01' W 061°41'2 3.2
2018-Mar-27 18:00N 16°60' W 061°42'2 3.3
2018-Mar-27 17:29N 16°59' W 061°44'1 1.9
2018-Mar-27 17:00N 16°59' W 061°45'1 2.6
2018-Mar-27 16:30N 16°60' W 061°46'1 1.3
2018-Mar-27 15:58N 17°01' W 061°46'0 0.0
2018-Mar-26 14:35N 17°01' W 061°46'0 0.1
2018-Mar-26 14:29N 17°01' W 061°46'0 0.0
2018-Mar-26 13:59N 17°01' W 061°46'0 0.0
2018-Mar-25 21:20N 17°01' W 061°46'0 0.6
2018-Mar-25 21:00N 17°00' W 061°46'0 0.5
2018-Mar-25 20:30N 17°00' W 061°46'0 0.0
2018-Mar-25 20:00N 17°00' W 061°46'0 0.0
2018-Mar-25 19:23N 17°00' W 061°46'1 1.8
2018-Mar-25 18:59N 16°60' W 061°46'2 4.1
2018-Mar-25 18:30N 16°58' W 061°47'3 5.9
2018-Mar-25 18:00N 16°55' W 061°48'3 6.3
2018-Mar-25 17:30N 16°52' W 061°49'3 6.3
2018-Mar-25 17:00N 16°49' W 061°49'3 5.9
2018-Mar-25 16:30N 16°46' W 061°49'  

Dump ship's entire track history